createdAt,value
2019-02-07T00:00:49.084Z,30.30
2019-02-07T00:02:11.991Z,28.50
2019-02-07T00:03:35.023Z,30.97
2019-02-07T00:04:59.962Z,32.30
2019-02-07T00:06:22.903Z,33.08
2019-02-07T00:07:46.232Z,35.83
2019-02-07T00:08:50.069Z,30.48
2019-02-07T00:11:55.268Z,32.17
2019-02-07T00:12:59.379Z,30.05
2019-02-07T00:15:45.514Z,24.95
2019-02-07T00:16:49.676Z,28.50
2019-02-07T00:17:53.906Z,32.20
2019-02-07T00:18:58.047Z,32.03
2019-02-07T00:20:02.196Z,29.18
2019-02-07T00:21:06.340Z,31.05
2019-02-07T00:22:10.313Z,30.95
2019-02-07T00:23:14.487Z,32.03
2019-02-07T00:24:18.634Z,32.20
2019-02-07T00:25:22.854Z,31.68
2019-02-07T00:26:27.029Z,30.72
2019-02-07T00:27:31.602Z,30.40
2019-02-07T00:28:35.498Z,29.65
2019-02-07T00:29:39.393Z,29.20
2019-02-07T00:30:43.617Z,30.00
2019-02-07T00:31:47.598Z,29.37
2019-02-07T00:32:51.922Z,29.95
2019-02-07T00:33:56.131Z,28.83
2019-02-07T00:35:00.348Z,29.35
2019-02-07T00:36:04.905Z,28.52
2019-02-07T00:37:09.095Z,28.98
2019-02-07T00:38:12.995Z,29.95
2019-02-07T00:39:17.381Z,28.42
2019-02-07T00:40:21.690Z,29.40
2019-02-07T00:41:25.591Z,28.80
2019-02-07T00:42:30.087Z,30.55
2019-02-07T00:43:34.311Z,28.65
2019-02-07T00:44:38.702Z,28.02
2019-02-07T00:45:42.669Z,28.23
2019-02-07T00:46:46.572Z,30.00
2019-02-07T00:47:50.533Z,29.63
2019-02-07T00:48:55.008Z,29.20
2019-02-07T00:49:58.916Z,29.95
2019-02-07T00:51:02.867Z,28.65
2019-02-07T00:54:08.231Z,28.42
2019-02-07T00:55:13.435Z,27.67
2019-02-07T00:56:39.709Z,30.95
2019-02-07T00:58:22.499Z,32.05
2019-02-07T01:00:55.727Z,30.70
2019-02-07T01:02:20.471Z,27.77
2019-02-07T01:03:43.871Z,29.70
2019-02-07T01:05:27.334Z,26.62
2019-02-07T01:06:50.596Z,27.60
2019-02-07T01:08:13.858Z,27.65
2019-02-07T01:09:18.133Z,25.55
2019-02-07T01:11:02.742Z,26.73
2019-02-07T01:12:46.207Z,26.30
2019-02-07T01:14:09.111Z,25.85
2019-02-07T01:15:52.576Z,25.37
2019-02-07T01:16:58.506Z,23.10
2019-02-07T01:18:23.504Z,26.57
2019-02-07T01:19:46.482Z,25.60
2019-02-07T01:22:26.913Z,27.55
2019-02-07T01:23:50.006Z,26.87
2019-02-07T01:25:13.042Z,26.17
2019-02-07T01:26:36.130Z,25.45
2019-02-07T01:27:59.506Z,25.77
2019-02-07T01:29:22.552Z,25.97
2019-02-07T01:32:09.966Z,28.02
2019-02-07T01:33:33.235Z,26.02
2019-02-07T01:34:37.234Z,28.47
2019-02-07T01:35:41.439Z,27.42
2019-02-07T01:37:04.396Z,30.27
2019-02-07T01:38:08.617Z,31.33
2019-02-07T01:41:15.111Z,29.92
2019-02-07T01:42:38.418Z,33.23
2019-02-07T01:44:01.784Z,26.70
2019-02-07T01:45:13.166Z,27.00
2019-02-07T01:46:31.541Z,28.47
2019-02-07T01:47:54.641Z,26.17
2019-02-07T01:48:58.475Z,28.12
2019-02-07T01:50:21.786Z,26.70
2019-02-07T01:51:46.756Z,28.32
2019-02-07T01:54:53.157Z,28.65
2019-02-07T01:56:16.191Z,29.05
2019-02-07T02:01:03.720Z,33.65
2019-02-07T02:02:08.046Z,26.97
2019-02-07T02:03:31.731Z,26.02
2019-02-07T02:04:35.914Z,26.68
2019-02-07T02:05:40.150Z,28.27
2019-02-07T02:06:44.051Z,29.45
2019-02-07T02:07:48.682Z,31.25
2019-02-07T02:08:52.899Z,31.15
2019-02-07T02:09:56.872Z,35.15
2019-02-07T02:11:01.299Z,36.45
2019-02-07T02:12:05.980Z,31.02
2019-02-07T02:13:10.201Z,29.40
2019-02-07T02:14:14.416Z,28.77
2019-02-07T02:15:24.753Z,33.02
2019-02-07T02:16:26.529Z,30.75
2019-02-07T02:17:30.432Z,33.67
2019-02-07T02:18:34.331Z,30.08
2019-02-07T02:19:38.220Z,32.10
2019-02-07T02:20:42.127Z,33.40
2019-02-07T02:21:46.598Z,35.95
2019-02-07T02:22:51.286Z,31.70
2019-02-07T02:23:55.263Z,32.67
2019-02-07T02:24:59.735Z,34.00
2019-02-07T02:26:03.705Z,31.07
2019-02-07T02:27:07.700Z,38.67
2019-02-07T02:28:12.201Z,34.95
2019-02-07T02:29:16.714Z,29.30
2019-02-07T02:30:23.799Z,29.42
2019-02-07T02:31:28.127Z,33.08
2019-02-07T02:32:32.022Z,29.87
2019-02-07T02:33:35.989Z,27.32
2019-02-07T02:34:39.956Z,26.93
2019-02-07T02:35:43.851Z,29.00
2019-02-07T02:37:07.092Z,30.95
2019-02-07T02:38:30.370Z,27.45
2019-02-07T02:39:34.346Z,28.15
2019-02-07T02:42:39.704Z,25.48
2019-02-07T02:44:03.026Z,29.42
2019-02-07T02:45:46.850Z,28.07
2019-02-07T02:47:09.867Z,26.48
2019-02-07T02:48:32.917Z,27.15
2019-02-07T02:50:16.642Z,28.32
2019-02-07T02:51:39.666Z,28.52
2019-02-07T02:53:23.454Z,28.45
2019-02-07T02:56:33.822Z,26.57
2019-02-07T02:57:57.212Z,29.85
2019-02-07T02:59:20.430Z,26.48
2019-02-07T03:02:29.627Z,26.23
2019-02-07T03:04:11.627Z,27.15
2019-02-07T03:05:34.592Z,26.80
2019-02-07T03:07:16.617Z,27.65
2019-02-07T03:10:11.125Z,29.30
2019-02-07T03:11:34.343Z,31.33
2019-02-07T03:13:16.609Z,29.30
2019-02-07T03:14:58.891Z,22.35
2019-02-07T03:16:40.888Z,26.30
2019-02-07T03:18:22.902Z,26.45
2019-02-07T03:20:04.902Z,28.27
2019-02-07T03:21:28.165Z,26.87
2019-02-07T03:22:51.562Z,26.27
2019-02-07T03:24:34.069Z,27.32
2019-02-07T03:26:16.348Z,26.77
2019-02-07T03:27:50.216Z,26.48
2019-02-07T03:29:32.485Z,25.80
2019-02-07T03:31:14.501Z,25.65
2019-02-07T03:32:35.907Z,26.68
2019-02-07T03:34:00.530Z,24.50
2019-02-07T03:35:42.541Z,26.02
2019-02-07T03:37:05.681Z,25.80
2019-02-07T03:38:28.680Z,26.07
2019-02-07T03:40:10.681Z,23.62
2019-02-07T03:41:25.111Z,27.45
2019-02-07T03:43:07.154Z,30.32
2019-02-07T03:44:49.419Z,25.72
2019-02-07T03:46:09.996Z,24.15
2019-02-07T03:47:33.573Z,24.55
2019-02-07T03:48:57.008Z,25.75
2019-02-07T03:50:39.032Z,25.92
2019-02-07T03:52:21.271Z,25.82
2019-02-07T03:54:03.537Z,26.45
2019-02-07T03:55:47.000Z,25.92
2019-02-07T03:57:32.232Z,26.17
2019-02-07T04:00:34.766Z,26.37
2019-02-07T04:01:57.966Z,21.93
2019-02-07T04:03:37.802Z,25.37
2019-02-07T04:05:00.816Z,26.52
2019-02-07T04:06:42.771Z,25.45
2019-02-07T04:08:24.766Z,24.32
2019-02-07T04:10:06.782Z,24.37
2019-02-07T04:13:13.667Z,24.98
2019-02-07T04:14:55.696Z,25.17
2019-02-07T04:16:18.651Z,25.70
2019-02-07T04:17:41.949Z,26.45
2019-02-07T04:19:24.207Z,25.52
2019-02-07T04:20:59.499Z,25.80
2019-02-07T04:22:41.507Z,22.25
2019-02-07T04:23:54.638Z,24.02
2019-02-07T04:25:18.116Z,22.37
2019-02-07T04:27:00.368Z,23.95
2019-02-07T04:28:42.394Z,20.30
2019-02-07T04:30:05.615Z,26.25
2019-02-07T04:33:31.282Z,25.25
2019-02-07T04:35:13.301Z,26.27
2019-02-07T04:36:55.543Z,24.63
2019-02-07T04:38:18.356Z,23.52
2019-02-07T04:39:41.828Z,24.25
2019-02-07T04:41:05.224Z,25.23
2019-02-07T04:42:47.226Z,21.93
2019-02-07T04:44:10.054Z,26.35
2019-02-07T04:45:42.587Z,26.00
2019-02-07T04:47:05.475Z,22.15
2019-02-07T04:48:30.667Z,25.08
2019-02-07T04:51:40.919Z,27.67
2019-02-07T04:52:54.273Z,29.00
2019-02-07T04:54:35.786Z,30.15
2019-02-07T04:56:01.270Z,30.77
2019-02-07T04:57:23.110Z,28.87
2019-02-07T04:58:58.070Z,27.37
2019-02-07T05:00:15.331Z,26.97
2019-02-07T05:01:34.850Z,28.30
2019-02-07T05:02:59.374Z,29.05
2019-02-07T05:04:15.204Z,24.75
2019-02-07T05:05:45.935Z,24.37
2019-02-07T05:07:28.233Z,19.75
2019-02-07T05:09:10.424Z,13.65
2019-02-07T05:10:33.919Z,19.05
2019-02-07T05:12:03.796Z,26.10
2019-02-07T05:13:46.176Z,26.68
2019-02-07T05:15:09.372Z,26.50
2019-02-07T05:16:39.590Z,27.77
2019-02-07T05:17:57.118Z,27.98
2019-02-07T05:19:39.364Z,28.57
2019-02-07T05:21:21.392Z,26.97
2019-02-07T05:22:44.279Z,21.87
2019-02-07T05:24:26.803Z,27.32
2019-02-07T05:25:50.252Z,28.10
2019-02-07T05:27:13.384Z,25.68
2019-02-07T05:28:36.827Z,24.20
2019-02-07T05:30:18.829Z,27.80
2019-02-07T05:31:42.056Z,30.45
2019-02-07T05:33:05.025Z,28.52
2019-02-07T05:34:48.744Z,28.15
2019-02-07T05:36:30.766Z,18.32
2019-02-07T05:38:13.062Z,25.50
2019-02-07T05:39:55.079Z,18.37
2019-02-07T05:41:37.096Z,26.20
2019-02-07T05:43:19.339Z,19.37
2019-02-07T05:45:01.453Z,29.05
2019-02-07T05:46:51.006Z,21.17
2019-02-07T05:48:28.663Z,26.82
2019-02-07T05:49:51.883Z,18.50
2019-02-07T05:51:34.167Z,16.65
2019-02-07T05:53:16.254Z,14.00
2019-02-07T05:54:58.262Z,17.75
2019-02-07T05:56:30.024Z,27.62
2019-02-07T05:57:52.931Z,26.10
2019-02-07T05:59:34.940Z,28.15
2019-02-07T06:00:58.023Z,25.75
2019-02-07T06:02:40.366Z,29.45
2019-02-07T06:04:13.814Z,20.52
2019-02-07T06:05:36.781Z,14.20
2019-02-07T06:06:59.683Z,21.80
2019-02-07T06:08:22.572Z,27.85
2019-02-07T06:09:45.460Z,17.98
2019-02-07T06:11:08.616Z,24.95
2019-02-07T06:12:50.636Z,27.67
2019-02-07T06:14:32.878Z,26.97
2019-02-07T06:16:14.888Z,28.98
2019-02-07T06:17:56.896Z,25.77
2019-02-07T06:21:17.724Z,25.60
2019-02-07T06:22:59.748Z,24.00
2019-02-07T06:24:33.501Z,26.90
2019-02-07T06:25:56.384Z,25.05
2019-02-07T06:27:38.990Z,16.40
2019-02-07T06:29:21.290Z,18.12
2019-02-07T06:30:50.340Z,25.60
2019-02-07T06:32:13.428Z,25.40
2019-02-07T06:33:35.315Z,25.75
2019-02-07T06:35:13.103Z,20.35
2019-02-07T06:36:34.694Z,18.57
2019-02-07T06:37:56.596Z,26.40
2019-02-07T06:39:28.261Z,27.50
2019-02-07T06:40:47.799Z,28.73
2019-02-07T06:42:18.696Z,23.67
2019-02-07T06:43:40.117Z,21.30
2019-02-07T06:45:06.023Z,18.27
2019-02-07T06:46:46.484Z,23.90
2019-02-07T06:48:08.082Z,26.48
2019-02-07T06:49:50.411Z,27.42
2019-02-07T06:51:32.663Z,27.25
2019-02-07T06:53:15.031Z,26.77
2019-02-07T06:54:57.062Z,14.85
2019-02-07T06:56:19.877Z,28.73
2019-02-07T06:57:43.086Z,21.60
2019-02-07T06:59:25.356Z,24.55
2019-02-07T07:00:48.256Z,24.52
2019-02-07T07:02:31.734Z,21.97
2019-02-07T07:03:57.561Z,21.30
2019-02-07T07:05:39.064Z,25.02
2019-02-07T07:07:02.198Z,19.65
2019-02-07T07:08:44.216Z,14.28
2019-02-07T07:10:26.464Z,23.50
2019-02-07T07:11:57.358Z,16.57
2019-02-07T07:13:39.616Z,10.28
2019-02-07T07:15:21.618Z,25.20
2019-02-07T07:16:44.755Z,23.90
2019-02-07T07:18:26.775Z,17.17
2019-02-07T07:20:01.543Z,9.98
2019-02-07T07:21:35.734Z,22.90
2019-02-07T07:23:17.991Z,13.22
2019-02-07T07:25:00.439Z,21.65
2019-02-07T07:28:07.079Z,16.60
2019-02-07T07:29:50.819Z,16.37
2019-02-07T07:31:33.147Z,27.48
2019-02-07T07:33:15.394Z,22.52
2019-02-07T07:34:57.653Z,22.27
2019-02-07T07:36:20.472Z,27.07
2019-02-07T07:37:33.683Z,28.40
2019-02-07T07:39:15.991Z,24.43
2019-02-07T07:40:39.327Z,22.77
2019-02-07T07:41:53.983Z,15.00
2019-02-07T07:43:36.241Z,26.60
2019-02-07T07:44:59.233Z,23.00
2019-02-07T07:46:44.418Z,12.63
2019-02-07T07:48:26.349Z,15.65
2019-02-07T07:50:10.110Z,25.75
2019-02-07T07:51:52.444Z,25.77
2019-02-07T07:53:34.738Z,17.30
2019-02-07T07:54:57.999Z,24.75
2019-02-07T07:56:40.253Z,21.20
2019-02-07T07:58:21.995Z,15.65
2019-02-07T07:59:44.900Z,17.35
2019-02-07T08:01:26.915Z,20.02
2019-02-07T08:02:50.051Z,15.40
2019-02-07T08:04:13.218Z,13.08
2019-02-07T08:05:56.694Z,21.55
2019-02-07T08:07:38.947Z,12.37
2019-02-07T08:09:21.200Z,15.25
2019-02-07T08:11:03.454Z,32.35
2019-02-07T08:12:26.418Z,13.50
2019-02-07T08:14:08.746Z,14.73
2019-02-07T08:15:52.374Z,15.28
2019-02-07T08:17:34.710Z,26.70
2019-02-07T08:18:57.923Z,14.95
2019-02-07T08:20:21.445Z,19.17
2019-02-07T08:22:05.384Z,18.98
2019-02-07T08:23:47.518Z,24.65
2019-02-07T08:25:21.883Z,20.32
2019-02-07T08:27:04.131Z,25.80
2019-02-07T08:28:46.140Z,21.52
2019-02-07T08:30:37.120Z,26.87
2019-02-07T08:32:00.018Z,23.67
2019-02-07T08:33:23.571Z,14.03
2019-02-07T08:34:46.771Z,27.77
2019-02-07T08:36:29.031Z,26.15
2019-02-07T08:38:11.277Z,24.07
2019-02-07T08:39:53.299Z,18.60
2019-02-07T08:41:35.897Z,11.38
2019-02-07T08:43:17.895Z,22.48
2019-02-07T08:44:40.790Z,20.12
2019-02-07T08:46:24.766Z,12.05
2019-02-07T08:48:07.007Z,22.05
2019-02-07T08:49:49.627Z,27.05
2019-02-07T08:51:13.333Z,27.52
2019-02-07T08:52:55.336Z,22.70
2019-02-07T08:54:37.334Z,17.40
2019-02-07T08:56:00.467Z,21.73
2019-02-07T08:57:23.647Z,22.77
2019-02-07T08:58:46.609Z,26.97
2019-02-07T09:00:28.633Z,10.80
2019-02-07T09:03:40.794Z,20.52
2019-02-07T09:05:23.126Z,25.70
2019-02-07T09:06:58.342Z,15.20
2019-02-07T09:08:20.306Z,13.80
2019-02-07T09:10:02.597Z,29.50
2019-02-07T09:11:25.852Z,28.52
2019-02-07T09:13:08.095Z,30.37
2019-02-07T09:14:30.998Z,25.30
2019-02-07T09:15:55.940Z,55.12
2019-02-07T09:17:18.915Z,19.50
2019-02-07T09:19:00.914Z,12.20
2019-02-07T09:20:44.430Z,19.55
2019-02-07T09:22:07.737Z,24.67
2019-02-07T09:23:30.548Z,26.42
2019-02-07T09:24:53.683Z,15.90
2019-02-07T09:26:16.578Z,27.75
2019-02-07T09:27:47.093Z,28.50
2019-02-07T09:29:29.428Z,31.15
2019-02-07T09:30:52.583Z,28.15
2019-02-07T09:32:15.823Z,17.87
2019-02-07T09:33:39.216Z,15.00
2019-02-07T09:35:02.523Z,21.73
2019-02-07T09:36:44.824Z,27.13
2019-02-07T09:38:26.934Z,23.47
2019-02-07T09:39:38.146Z,13.43
2019-02-07T09:41:01.032Z,23.75
2019-02-07T09:42:44.520Z,25.08
2019-02-07T09:44:07.493Z,11.78
2019-02-07T09:45:53.119Z,26.10
2019-02-07T09:47:35.459Z,14.05
2019-02-07T09:49:17.780Z,20.95
2019-02-07T09:50:40.922Z,23.83
2019-02-07T09:52:03.884Z,14.87
2019-02-07T09:53:46.226Z,17.12
2019-02-07T09:55:09.657Z,27.93
2019-02-07T09:56:51.655Z,29.35
2019-02-07T09:58:33.669Z,27.95
2019-02-07T09:59:56.876Z,21.60
2019-02-07T10:01:27.456Z,28.95
2019-02-07T10:02:50.535Z,12.65
2019-02-07T10:04:32.540Z,24.57
2019-02-07T10:06:14.546Z,24.37
2019-02-07T10:07:56.634Z,17.85
2019-02-07T10:09:19.855Z,19.77
2019-02-07T10:11:01.782Z,15.63
2019-02-07T10:12:45.522Z,26.00
2019-02-07T10:14:18.164Z,18.42
2019-02-07T10:16:01.627Z,25.25
2019-02-07T10:17:45.091Z,23.50
2019-02-07T10:19:27.351Z,30.20
2019-02-07T10:21:11.062Z,34.23
2019-02-07T10:22:34.224Z,33.42
2019-02-07T10:24:16.237Z,32.03
2019-02-07T10:25:58.260Z,33.25
2019-02-07T10:27:21.458Z,17.05
2019-02-07T10:29:03.883Z,28.02
2019-02-07T10:30:46.140Z,25.10
2019-02-07T10:32:28.211Z,23.90
2019-02-07T10:33:51.720Z,29.02
2019-02-07T10:35:22.649Z,30.10
2019-02-07T10:37:02.847Z,21.15
2019-02-07T10:38:44.853Z,12.35
2019-02-07T10:39:58.755Z,13.28
2019-02-07T10:41:42.237Z,18.67
2019-02-07T10:43:24.481Z,30.70
2019-02-07T10:44:48.079Z,34.58
2019-02-07T10:46:31.799Z,18.37
2019-02-07T10:47:54.769Z,22.45
2019-02-07T10:49:37.029Z,22.52
2019-02-07T10:51:19.028Z,23.12
2019-02-07T10:54:25.707Z,23.07
2019-02-07T10:56:01.675Z,31.48
2019-02-07T10:57:44.007Z,32.80
2019-02-07T10:59:06.994Z,30.70
2019-02-07T11:00:53.920Z,34.95
2019-02-07T11:02:36.090Z,33.73
2019-02-07T11:03:59.301Z,21.55
2019-02-07T11:07:12.138Z,15.23
2019-02-07T11:08:54.139Z,29.18
2019-02-07T11:10:36.154Z,18.10
2019-02-07T11:12:18.154Z,16.23
2019-02-07T11:13:41.216Z,19.95
2019-02-07T11:15:04.131Z,27.77
2019-02-07T11:16:46.399Z,26.20
2019-02-07T11:18:00.195Z,29.50
2019-02-07T11:19:21.508Z,26.02
2019-02-07T11:20:45.032Z,21.42
2019-02-07T11:22:01.859Z,26.87
2019-02-07T11:23:21.793Z,27.48
2019-02-07T11:24:44.967Z,20.08
2019-02-07T11:26:16.752Z,20.43
2019-02-07T11:27:39.131Z,27.95
2019-02-07T11:29:00.949Z,21.60
2019-02-07T11:30:22.031Z,13.78
2019-02-07T11:31:35.738Z,14.00
2019-02-07T11:32:57.681Z,28.50
2019-02-07T11:34:26.832Z,25.82
2019-02-07T11:36:08.846Z,19.42
2019-02-07T11:37:50.846Z,19.87
2019-02-07T11:39:34.313Z,28.30
2019-02-07T11:41:16.331Z,32.42
2019-02-07T11:42:29.145Z,24.90
2019-02-07T11:45:55.996Z,18.70
2019-02-07T11:47:20.685Z,21.50
2019-02-07T11:48:43.886Z,29.92
2019-02-07T11:50:16.171Z,30.40
2019-02-07T11:51:58.164Z,17.00
2019-02-07T11:53:40.086Z,24.40
2019-02-07T11:54:58.886Z,27.73
2019-02-07T11:56:41.147Z,31.68
2019-02-07T11:58:11.931Z,24.82
2019-02-07T11:59:57.264Z,34.75
2019-02-07T12:01:39.276Z,33.13
2019-02-07T12:03:02.240Z,25.25
2019-02-07T12:06:08.856Z,13.65
2019-02-07T12:07:32.258Z,15.00
2019-02-07T12:09:14.270Z,22.60
2019-02-07T12:10:56.277Z,11.73
2019-02-07T12:12:38.531Z,16.25
2019-02-07T12:14:01.346Z,28.40
2019-02-07T12:15:43.430Z,32.33
2019-02-07T12:17:26.220Z,25.17
2019-02-07T12:19:17.733Z,26.12
2019-02-07T12:20:24.155Z,19.25
2019-02-07T12:22:08.157Z,23.67
2019-02-07T12:23:30.965Z,22.77
2019-02-07T12:24:53.999Z,13.75
2019-02-07T12:26:35.998Z,23.18
2019-02-07T12:28:18.013Z,21.15
2019-02-07T12:30:01.820Z,11.97
2019-02-07T12:31:45.528Z,27.93
2019-02-07T12:33:27.788Z,35.48
2019-02-07T12:35:09.782Z,32.35
2019-02-07T12:36:51.785Z,18.00
2019-02-07T12:38:34.042Z,26.85
2019-02-07T12:39:57.250Z,19.10
2019-02-07T12:41:39.605Z,12.13
2019-02-07T12:43:02.779Z,21.80
2019-02-07T12:44:44.783Z,20.45
2019-02-07T12:46:27.026Z,22.65
2019-02-07T12:47:49.943Z,11.95
2019-02-07T12:49:33.934Z,23.45
2019-02-07T12:50:57.182Z,17.92
2019-02-07T12:52:39.431Z,30.92
2019-02-07T12:55:53.890Z,18.65
2019-02-07T12:57:37.631Z,29.80
2019-02-07T12:59:19.978Z,20.57
2019-02-07T13:00:43.340Z,25.25
2019-02-07T13:02:06.442Z,22.07
2019-02-07T13:03:29.343Z,30.25
2019-02-07T13:05:08.547Z,31.10
2019-02-07T13:06:33.540Z,25.52
2019-02-07T13:09:59.365Z,27.70
2019-02-07T13:11:22.328Z,28.77
2019-02-07T13:13:04.332Z,26.05
2019-02-07T13:14:48.092Z,31.02
2019-02-07T13:16:11.234Z,17.27
2019-02-07T13:17:53.474Z,33.78
2019-02-07T13:19:40.537Z,37.78
2019-02-07T13:21:19.781Z,34.13
2019-02-07T13:23:01.989Z,25.92
2019-02-07T13:24:45.476Z,23.42
2019-02-07T13:26:27.785Z,24.98
2019-02-07T13:27:50.977Z,16.48
2019-02-07T13:29:33.034Z,22.32
2019-02-07T13:30:56.223Z,28.95
2019-02-07T13:32:26.652Z,22.15
2019-02-07T13:34:08.907Z,31.80
2019-02-07T13:35:52.426Z,28.50
2019-02-07T13:37:34.770Z,23.47
2019-02-07T13:39:17.003Z,28.65
2019-02-07T13:40:59.269Z,29.15
2019-02-07T13:42:41.266Z,27.50
2019-02-07T13:44:23.270Z,30.20
2019-02-07T13:46:05.556Z,26.20
2019-02-07T13:47:47.797Z,22.37
2019-02-07T13:49:10.924Z,25.15
2019-02-07T13:50:34.215Z,31.23
2019-02-07T13:52:16.219Z,33.45
2019-02-07T13:53:39.043Z,25.10
2019-02-07T13:55:02.025Z,27.13
2019-02-07T13:56:45.747Z,20.52
2019-02-07T13:57:56.399Z,15.13
2019-02-07T13:59:38.402Z,24.50
2019-02-07T14:01:20.633Z,16.97
2019-02-07T14:02:35.963Z,27.58
2019-02-07T14:03:59.204Z,26.93
2019-02-07T14:05:41.784Z,22.10
2019-02-07T14:07:23.970Z,31.85
2019-02-07T14:08:47.714Z,30.27
2019-02-07T14:10:31.755Z,33.28
2019-02-07T14:11:55.075Z,20.60
2019-02-07T14:13:18.599Z,33.10
2019-02-07T14:14:42.237Z,26.15
2019-02-07T14:16:06.521Z,20.97
2019-02-07T14:17:48.654Z,27.62
2019-02-07T14:19:03.192Z,59.42
2019-02-07T14:20:26.393Z,37.25
2019-02-07T14:21:38.114Z,25.90
2019-02-07T14:23:01.270Z,26.45
2019-02-07T14:24:26.243Z,27.35
2019-02-07T14:26:08.273Z,21.37
2019-02-07T14:27:50.291Z,34.75
2019-02-07T14:29:13.429Z,42.45
2019-02-07T14:30:36.393Z,32.80
2019-02-07T14:31:59.661Z,28.47
2019-02-07T14:33:32.682Z,35.70
2019-02-07T14:35:14.694Z,19.20
2019-02-07T14:36:56.962Z,33.67
2019-02-07T14:38:39.273Z,34.48
2019-02-07T14:40:02.486Z,15.20
2019-02-07T14:41:46.360Z,43.20
2019-02-07T14:43:17.309Z,39.70
2019-02-07T14:44:40.330Z,47.53
2019-02-07T14:46:11.653Z,35.35
2019-02-07T14:47:15.662Z,33.70
2019-02-07T14:48:38.014Z,31.12
2019-02-07T14:49:42.086Z,31.85
2019-02-07T14:50:46.156Z,36.05
2019-02-07T14:51:50.393Z,35.40
2019-02-07T14:52:54.380Z,28.40
2019-02-07T14:54:00.757Z,27.27
2019-02-07T14:55:05.130Z,16.62
2019-02-07T14:56:09.272Z,36.35
2019-02-07T14:57:13.315Z,31.27
2019-02-07T14:58:17.715Z,33.83
2019-02-07T14:59:21.686Z,33.50
2019-02-07T15:00:26.130Z,29.15
2019-02-07T15:01:30.102Z,28.17
2019-02-07T15:02:35.294Z,16.25
2019-02-07T15:03:39.960Z,17.77
2019-02-07T15:04:44.440Z,19.65
2019-02-07T15:05:49.459Z,23.40
2019-02-07T15:06:54.164Z,21.23
2019-02-07T15:07:58.815Z,21.50
2019-02-07T15:09:03.967Z,20.52
2019-02-07T15:10:11.179Z,31.42
2019-02-07T15:11:15.576Z,30.90
2019-02-07T15:12:20.175Z,23.50
2019-02-07T15:13:24.075Z,29.90
2019-02-07T15:14:28.465Z,24.65
2019-02-07T15:15:33.023Z,28.23
2019-02-07T15:16:37.883Z,31.95
2019-02-07T15:17:42.954Z,30.55
2019-02-07T15:18:47.705Z,24.87
2019-02-07T15:19:52.181Z,26.73
2019-02-07T15:20:56.858Z,22.75
2019-02-07T15:22:01.542Z,32.15
2019-02-07T15:23:06.028Z,35.48
2019-02-07T15:24:10.718Z,32.30
2019-02-07T15:25:18.229Z,31.48
2019-02-07T15:26:22.909Z,26.12
2019-02-07T15:27:27.612Z,34.58
2019-02-07T15:28:32.454Z,32.78
2019-02-07T15:29:37.070Z,31.10
2019-02-07T15:30:41.531Z,34.88
2019-02-07T15:31:45.507Z,33.05
2019-02-07T15:32:50.541Z,28.20
2019-02-07T15:33:55.208Z,30.65
2019-02-07T15:34:59.590Z,32.15
2019-02-07T15:36:04.264Z,33.05
2019-02-07T15:37:09.425Z,41.90
2019-02-07T15:38:14.089Z,29.52
2019-02-07T15:39:20.082Z,31.12
2019-02-07T15:40:25.556Z,35.25
2019-02-07T15:41:30.622Z,32.28
2019-02-07T15:42:34.930Z,33.00
2019-02-07T15:43:39.622Z,34.67
2019-02-07T15:44:43.853Z,28.38
2019-02-07T15:45:48.979Z,29.92
2019-02-07T15:46:53.971Z,29.95
2019-02-07T15:47:58.792Z,31.17
2019-02-07T15:49:03.097Z,32.00
2019-02-07T15:50:13.424Z,31.85
2019-02-07T15:51:19.775Z,24.85
2019-02-07T15:52:24.075Z,21.17
2019-02-07T15:53:28.000Z,25.32
2019-02-07T15:54:32.568Z,25.37
2019-02-07T15:55:36.886Z,30.62
2019-02-07T15:56:40.863Z,31.12
2019-02-07T15:57:45.021Z,28.77
2019-02-07T15:59:14.299Z,31.73
2019-02-07T16:00:36.753Z,30.60
2019-02-07T16:01:45.371Z,30.68
2019-02-07T16:02:54.491Z,32.42
2019-02-07T16:04:03.723Z,27.65
2019-02-07T16:05:10.250Z,31.05
2019-02-07T16:06:14.221Z,33.50
2019-02-07T16:07:18.186Z,33.98
2019-02-07T16:08:22.014Z,34.65
2019-02-07T16:09:25.994Z,34.83
2019-02-07T16:10:29.968Z,26.73
2019-02-07T16:11:34.197Z,36.50
2019-02-07T16:12:38.169Z,31.35
2019-02-07T16:13:42.556Z,34.23
2019-02-07T16:14:46.783Z,32.83
2019-02-07T16:15:50.987Z,34.67
2019-02-07T16:16:55.126Z,33.85
2019-02-07T16:17:59.103Z,36.08
2019-02-07T16:19:03.527Z,27.07
2019-02-07T16:20:11.730Z,30.40
2019-02-07T16:21:15.642Z,28.55
2019-02-07T16:22:19.670Z,29.65
2019-02-07T16:23:23.886Z,32.73
2019-02-07T16:24:28.129Z,32.48
2019-02-07T16:25:32.101Z,32.70
2019-02-07T16:26:36.586Z,35.83
2019-02-07T16:27:40.809Z,29.10
2019-02-07T16:28:44.776Z,33.33
2019-02-07T16:29:49.005Z,31.15
2019-02-07T16:30:53.225Z,34.48
2019-02-07T16:31:57.538Z,33.88
2019-02-07T16:33:01.685Z,33.55
2019-02-07T16:34:06.169Z,34.30
2019-02-07T16:35:11.094Z,31.80
2019-02-07T16:36:16.037Z,31.27
2019-02-07T16:37:20.248Z,31.07
2019-02-07T16:38:25.030Z,22.98
2019-02-07T16:39:29.540Z,30.95
2019-02-07T16:40:33.921Z,32.28
2019-02-07T16:41:38.259Z,32.17
2019-02-07T16:42:42.683Z,33.88
2019-02-07T16:43:46.890Z,31.45
2019-02-07T16:44:50.868Z,29.05
2019-02-07T16:45:54.877Z,26.70
2019-02-07T16:46:58.990Z,24.07
2019-02-07T16:48:03.192Z,31.25
2019-02-07T16:49:07.398Z,28.35
2019-02-07T16:50:13.635Z,32.70
2019-02-07T16:51:20.306Z,32.85
2019-02-07T16:52:24.445Z,33.18
2019-02-07T16:53:28.786Z,22.67
2019-02-07T16:54:32.953Z,35.20
2019-02-07T16:55:37.427Z,34.00
2019-02-07T16:56:41.837Z,32.88
2019-02-07T16:57:45.909Z,35.15
2019-02-07T16:58:50.190Z,33.75
2019-02-07T16:59:54.484Z,34.98
2019-02-07T17:00:59.469Z,34.03
2019-02-07T17:02:03.544Z,35.88
2019-02-07T17:03:07.774Z,34.05
2019-02-07T17:04:12.086Z,35.33
2019-02-07T17:05:17.426Z,34.50
2019-02-07T17:06:21.727Z,35.35
2019-02-07T17:07:25.727Z,33.42
2019-02-07T17:08:30.411Z,27.62
2019-02-07T17:09:39.599Z,33.80
2019-02-07T17:10:44.002Z,26.82
2019-02-07T17:11:47.969Z,29.50
2019-02-07T17:12:52.232Z,33.95
2019-02-07T17:13:56.542Z,33.50
2019-02-07T17:15:00.514Z,33.13
2019-02-07T17:16:05.098Z,32.05
2019-02-07T17:17:09.340Z,28.60
2019-02-07T17:18:15.531Z,33.78
2019-02-07T17:19:21.715Z,24.00
2019-02-07T17:20:28.649Z,19.27
2019-02-07T17:21:32.576Z,34.30
2019-02-07T17:22:36.963Z,30.50
2019-02-07T17:23:40.940Z,35.05
2019-02-07T17:24:45.246Z,34.30
2019-02-07T17:25:49.789Z,28.75
2019-02-07T17:26:54.004Z,30.10
2019-02-07T17:27:58.616Z,34.95
2019-02-07T17:29:02.836Z,35.00
2019-02-07T17:30:12.198Z,36.28
2019-02-07T17:31:16.455Z,36.15
2019-02-07T17:32:20.921Z,35.80
2019-02-07T17:33:25.134Z,34.67
2019-02-07T17:34:29.278Z,37.63
2019-02-07T17:35:33.247Z,35.52
2019-02-07T17:36:37.650Z,35.40
2019-02-07T17:37:41.867Z,35.08
2019-02-07T17:38:46.003Z,30.95
2019-02-07T17:39:50.148Z,35.90
2019-02-07T17:40:54.381Z,29.63
2019-02-07T17:41:59.557Z,23.05
2019-02-07T17:43:03.726Z,36.48
2019-02-07T17:44:08.119Z,37.70
2019-02-07T17:45:15.700Z,35.10
2019-02-07T17:46:19.994Z,41.30
2019-02-07T17:47:24.227Z,37.10
2019-02-07T17:48:28.476Z,39.63
2019-02-07T17:49:32.299Z,38.30
2019-02-07T17:50:36.678Z,39.45
2019-02-07T17:51:40.908Z,41.05
2019-02-07T17:52:44.884Z,43.85
2019-02-07T17:53:48.852Z,44.33
2019-02-07T17:54:52.835Z,44.27
2019-02-07T17:55:57.047Z,45.95
2019-02-07T17:57:01.039Z,42.45
2019-02-07T17:58:05.467Z,44.38
2019-02-07T17:59:09.447Z,46.33
2019-02-07T18:00:26.043Z,46.10
2019-02-07T18:01:30.267Z,50.35
2019-02-07T18:02:34.361Z,45.45
2019-02-07T18:03:38.871Z,46.37
2019-02-07T18:04:44.147Z,55.70
2019-02-07T18:05:48.319Z,48.48
2019-02-07T18:06:52.463Z,52.17
2019-02-07T18:07:56.455Z,51.28
2019-02-07T18:09:00.355Z,47.45
2019-02-07T18:10:05.924Z,48.73
2019-02-07T18:11:10.314Z,46.55
2019-02-07T18:12:14.216Z,48.42
2019-02-07T18:13:18.229Z,44.70
2019-02-07T18:14:22.442Z,47.50
2019-02-07T18:15:26.660Z,43.52
2019-02-07T18:16:30.487Z,69.80
2019-02-07T18:17:34.901Z,44.42
2019-02-07T18:18:39.142Z,44.42
2019-02-07T18:19:43.555Z,44.75
2019-02-07T18:20:47.539Z,44.67
2019-02-07T18:21:52.011Z,42.23
2019-02-07T18:22:56.003Z,43.25
2019-02-07T18:23:59.943Z,44.73
2019-02-07T18:25:04.964Z,45.40
2019-02-07T18:26:09.197Z,46.18
2019-02-07T18:27:13.338Z,49.30